createdAt,value
2018-07-16T00:00:12.379Z,0.00
2018-07-16T00:01:12.395Z,0.00
2018-07-16T00:02:12.382Z,0.00
2018-07-16T00:03:12.390Z,0.00
2018-07-16T00:04:12.391Z,0.00
2018-07-16T00:05:12.396Z,0.00
2018-07-16T00:06:12.399Z,0.00
2018-07-16T00:07:12.403Z,0.00
2018-07-16T00:08:12.405Z,0.00
2018-07-16T00:09:12.410Z,0.00
2018-07-16T00:10:12.410Z,0.00
2018-07-16T00:11:12.414Z,0.00
2018-07-16T00:12:12.424Z,0.00
2018-07-16T00:13:12.427Z,0.00
2018-07-16T00:14:12.430Z,0.00
2018-07-16T00:15:12.435Z,0.00
2018-07-16T00:16:12.433Z,0.00
2018-07-16T00:17:12.441Z,0.00
2018-07-16T00:18:12.442Z,0.00
2018-07-16T00:19:12.443Z,0.00
2018-07-16T00:20:12.452Z,0.00
2018-07-16T00:21:12.449Z,0.00
2018-07-16T00:22:12.471Z,0.00
2018-07-16T00:23:12.461Z,0.00
2018-07-16T00:24:12.467Z,0.00
2018-07-16T00:25:12.481Z,0.00
2018-07-16T00:26:12.489Z,0.00
2018-07-16T00:27:12.469Z,0.00
2018-07-16T00:28:12.478Z,0.00
2018-07-16T00:29:12.488Z,0.00
2018-07-16T00:30:12.489Z,0.00
2018-07-16T00:31:12.489Z,0.00
2018-07-16T00:32:12.495Z,0.00
2018-07-16T00:33:12.549Z,0.00
2018-07-16T00:34:12.502Z,0.00
2018-07-16T00:35:12.509Z,0.00
2018-07-16T00:36:12.505Z,0.00
2018-07-16T00:37:12.508Z,0.00
2018-07-16T00:38:12.512Z,0.00
2018-07-16T00:39:12.518Z,0.00
2018-07-16T00:40:12.557Z,0.00
2018-07-16T00:41:12.546Z,0.00
2018-07-16T00:42:12.524Z,0.00
2018-07-16T00:43:12.538Z,0.00
2018-07-16T00:44:12.526Z,0.00
2018-07-16T00:45:12.545Z,0.00
2018-07-16T00:46:12.543Z,0.00
2018-07-16T00:47:12.539Z,0.00
2018-07-16T00:48:12.561Z,0.00
2018-07-16T00:49:12.554Z,0.00
2018-07-16T00:50:12.579Z,0.00
2018-07-16T00:51:12.577Z,0.00
2018-07-16T00:52:12.575Z,0.00
2018-07-16T00:53:12.565Z,0.00
2018-07-16T00:54:12.573Z,0.00
2018-07-16T00:55:12.675Z,0.00
2018-07-16T00:56:12.580Z,0.00
2018-07-16T00:57:12.731Z,0.00
2018-07-16T00:58:12.582Z,0.00
2018-07-16T00:59:12.599Z,0.00
2018-07-16T01:00:12.591Z,0.00
2018-07-16T01:01:12.642Z,0.00
2018-07-16T01:02:12.592Z,0.00
2018-07-16T01:03:12.601Z,0.00
2018-07-16T01:04:12.609Z,0.00
2018-07-16T01:05:12.606Z,0.00
2018-07-16T01:06:12.609Z,0.00
2018-07-16T01:07:12.617Z,0.00
2018-07-16T01:08:12.619Z,0.00
2018-07-16T01:09:12.618Z,0.00
2018-07-16T01:10:12.623Z,0.00
2018-07-16T01:11:12.623Z,0.00
2018-07-16T01:12:12.652Z,0.00
2018-07-16T01:13:12.641Z,0.00
2018-07-16T01:14:12.631Z,0.00
2018-07-16T01:15:12.657Z,0.00
2018-07-16T01:16:12.648Z,0.00
2018-07-16T01:17:12.647Z,0.00
2018-07-16T01:18:12.654Z,0.00
2018-07-16T01:19:12.673Z,0.00
2018-07-16T01:20:12.664Z,0.00
2018-07-16T01:21:12.663Z,0.00
2018-07-16T01:22:12.655Z,0.00
2018-07-16T01:23:12.663Z,0.00
2018-07-16T01:24:12.677Z,0.00
2018-07-16T01:25:12.693Z,0.00
2018-07-16T01:26:12.672Z,0.00
2018-07-16T01:27:12.674Z,0.00
2018-07-16T01:28:12.710Z,0.00
2018-07-16T01:29:12.680Z,0.00
2018-07-16T01:30:12.690Z,0.00
2018-07-16T01:31:12.691Z,0.00
2018-07-16T01:32:12.699Z,0.00
2018-07-16T01:33:12.702Z,0.00
2018-07-16T01:34:12.707Z,0.00
2018-07-16T01:35:12.701Z,0.00
2018-07-16T01:36:12.704Z,0.00
2018-07-16T01:37:12.707Z,0.00
2018-07-16T01:38:12.715Z,0.00
2018-07-16T01:39:12.731Z,0.00
2018-07-16T01:40:12.723Z,0.00
2018-07-16T01:41:12.721Z,0.00
2018-07-16T01:42:12.730Z,0.00
2018-07-16T01:43:12.735Z,0.00
2018-07-16T01:44:12.727Z,0.00
2018-07-16T01:45:12.742Z,0.00
2018-07-16T01:46:12.745Z,0.00
2018-07-16T01:47:12.753Z,0.00
2018-07-16T01:48:12.769Z,0.00
2018-07-16T01:49:12.747Z,0.00
2018-07-16T01:50:12.749Z,0.00
2018-07-16T01:51:12.753Z,0.00
2018-07-16T01:52:12.761Z,0.00
2018-07-16T01:53:12.773Z,0.00
2018-07-16T01:54:12.799Z,0.00
2018-07-16T01:55:12.801Z,0.00
2018-07-16T01:56:12.769Z,0.00
2018-07-16T01:57:12.786Z,0.00
2018-07-16T01:58:12.796Z,0.00
2018-07-16T01:59:12.776Z,0.00
2018-07-16T02:00:12.818Z,0.00
2018-07-16T02:01:12.787Z,0.00
2018-07-16T02:02:12.785Z,0.00
2018-07-16T02:03:12.825Z,0.00
2018-07-16T02:04:12.793Z,0.00
2018-07-16T02:05:12.837Z,0.00
2018-07-16T02:06:12.809Z,0.00
2018-07-16T02:07:12.806Z,0.00
2018-07-16T02:08:12.811Z,0.00
2018-07-16T02:09:12.815Z,0.00
2018-07-16T02:10:12.826Z,0.00
2018-07-16T02:11:12.819Z,0.00
2018-07-16T02:12:12.833Z,0.00
2018-07-16T02:13:12.836Z,0.00
2018-07-16T02:14:12.830Z,0.00
2018-07-16T02:15:12.870Z,0.00
2018-07-16T02:16:12.852Z,0.00
2018-07-16T02:17:12.837Z,0.00
2018-07-16T02:18:12.865Z,0.00
2018-07-16T02:19:12.839Z,0.00
2018-07-16T02:20:12.846Z,0.00
2018-07-16T02:21:12.870Z,0.00
2018-07-16T02:22:12.874Z,0.00
2018-07-16T02:23:12.863Z,0.00
2018-07-16T02:24:12.885Z,0.00
2018-07-16T02:25:12.888Z,0.00
2018-07-16T02:26:12.870Z,0.00
2018-07-16T02:27:12.878Z,0.00
2018-07-16T02:28:12.895Z,0.00
2018-07-16T02:29:12.895Z,0.00
2018-07-16T02:30:12.882Z,0.00
2018-07-16T02:31:12.896Z,0.00
2018-07-16T02:32:12.889Z,0.00
2018-07-16T02:33:12.919Z,0.00
2018-07-16T02:34:12.894Z,0.00
2018-07-16T02:35:12.903Z,0.00
2018-07-16T02:36:12.908Z,0.00
2018-07-16T02:37:12.898Z,0.00
2018-07-16T02:38:12.908Z,0.00
2018-07-16T02:39:12.923Z,0.00
2018-07-16T02:40:12.924Z,0.00
2018-07-16T02:41:12.923Z,0.00
2018-07-16T02:42:12.915Z,0.00
2018-07-16T02:43:12.974Z,0.00
2018-07-16T02:44:12.944Z,0.00
2018-07-16T02:45:12.953Z,0.00
2018-07-16T02:46:12.950Z,0.00
2018-07-16T02:47:12.957Z,0.00
2018-07-16T02:48:12.957Z,0.00
2018-07-16T02:49:12.949Z,0.00
2018-07-16T02:50:12.957Z,0.00
2018-07-16T02:51:12.971Z,0.00
2018-07-16T02:52:12.964Z,0.00
2018-07-16T02:53:12.971Z,0.00
2018-07-16T02:54:12.979Z,0.00
2018-07-16T02:55:12.969Z,0.00
2018-07-16T02:56:13.043Z,0.00
2018-07-16T02:57:12.984Z,0.00
2018-07-16T02:58:12.989Z,0.00
2018-07-16T03:17:19.876Z,0.00
2018-07-16T03:18:19.872Z,0.00
2018-07-16T03:19:19.876Z,0.00
2018-07-16T03:20:19.859Z,0.00
2018-07-16T03:21:19.869Z,0.00
2018-07-16T03:22:19.854Z,4.00
2018-07-16T03:23:19.857Z,4.00
2018-07-16T03:24:19.864Z,4.00
2018-07-16T03:25:19.868Z,0.00
2018-07-16T03:26:19.859Z,4.00
2018-07-16T03:27:19.862Z,4.00
2018-07-16T03:28:19.858Z,4.00
2018-07-16T03:29:19.858Z,8.00
2018-07-16T03:30:19.860Z,4.00
2018-07-16T03:31:19.875Z,8.00
2018-07-16T03:32:19.977Z,4.00
2018-07-16T03:33:19.883Z,8.00
2018-07-16T03:34:19.871Z,12.00
2018-07-16T03:35:19.896Z,8.00
2018-07-16T03:36:19.877Z,12.00
2018-07-16T03:37:19.890Z,12.00
2018-07-16T03:38:19.879Z,16.00
2018-07-16T03:39:19.876Z,16.00
2018-07-16T03:40:20.100Z,16.00
2018-07-16T03:41:19.886Z,20.00
2018-07-16T03:42:19.883Z,20.00
2018-07-16T03:43:19.891Z,24.00
2018-07-16T03:44:19.892Z,28.00
2018-07-16T03:45:19.892Z,28.00
2018-07-16T03:46:19.910Z,32.00
2018-07-16T03:47:19.897Z,32.00
2018-07-16T03:48:19.898Z,32.00
2018-07-16T03:49:19.902Z,36.00
2018-07-16T03:50:19.911Z,36.00
2018-07-16T03:51:19.906Z,40.00
2018-07-16T03:52:19.968Z,40.00
2018-07-16T03:53:19.937Z,44.00
2018-07-16T03:54:19.964Z,44.00
2018-07-16T03:55:19.942Z,48.00
2018-07-16T03:56:19.930Z,48.00
2018-07-16T03:57:19.927Z,48.00
2018-07-16T03:58:19.949Z,48.00
2018-07-16T03:59:19.945Z,52.00
2018-07-16T04:00:19.961Z,52.00
2018-07-16T04:01:19.934Z,56.00
2018-07-16T04:02:19.939Z,56.00
2018-07-16T04:03:19.948Z,60.00
2018-07-16T04:04:19.958Z,60.00
2018-07-16T04:05:19.956Z,60.00
2018-07-16T04:06:19.969Z,68.00
2018-07-16T04:07:19.952Z,68.00
2018-07-16T04:08:19.952Z,76.00
2018-07-16T04:09:19.972Z,80.00
2018-07-16T04:10:19.959Z,84.00
2018-07-16T04:11:19.962Z,88.00
2018-07-16T04:12:20.104Z,92.00
2018-07-16T04:13:19.977Z,100.00
2018-07-16T04:14:19.977Z,108.00
2018-07-16T04:15:19.995Z,120.00
2018-07-16T04:16:19.970Z,140.00
2018-07-16T04:17:19.976Z,160.00
2018-07-16T04:18:20.016Z,180.00
2018-07-16T04:19:19.998Z,200.00
2018-07-16T04:20:19.985Z,220.00
2018-07-16T04:21:19.997Z,252.00
2018-07-16T04:22:20.007Z,288.00
2018-07-16T04:23:20.000Z,332.00
2018-07-16T04:24:20.000Z,384.00
2018-07-16T04:25:20.004Z,452.00
2018-07-16T04:26:20.005Z,528.00
2018-07-16T04:27:20.005Z,628.00
2018-07-16T04:28:20.006Z,784.00
2018-07-16T04:29:20.038Z,1044.00
2018-07-16T04:30:20.067Z,1544.00
2018-07-16T04:31:20.038Z,1568.00
2018-07-16T04:32:20.023Z,1728.00
2018-07-16T04:33:20.023Z,1916.00
2018-07-16T04:34:20.020Z,2200.00
2018-07-16T04:35:20.064Z,2528.00
2018-07-16T04:36:20.065Z,2732.00
2018-07-16T04:37:20.092Z,2928.00
2018-07-16T04:38:20.043Z,3268.00
2018-07-16T04:39:20.045Z,4788.00
2018-07-16T04:40:20.053Z,9040.00
2018-07-16T04:41:20.045Z,12140.00
2018-07-16T04:42:20.084Z,11976.00
2018-07-16T04:43:20.056Z,11560.00
2018-07-16T04:44:20.071Z,14912.00
2018-07-16T04:45:20.073Z,28224.00
2018-07-16T04:46:20.070Z,38560.00
2018-07-16T04:47:20.080Z,39136.00
2018-07-16T04:48:20.085Z,37184.00
2018-07-16T04:49:20.134Z,35360.00
2018-07-16T04:50:20.091Z,35136.00
2018-07-16T04:51:20.116Z,33280.00
2018-07-16T04:52:20.124Z,32672.00
2018-07-16T04:53:20.155Z,36896.00
2018-07-16T04:54:20.137Z,38976.00
2018-07-16T04:55:20.145Z,42816.00
2018-07-16T04:56:20.177Z,48032.00
2018-07-16T04:57:20.141Z,55232.00
2018-07-16T04:58:20.152Z,61312.00
2018-07-16T04:59:20.181Z,67104.00
2018-07-16T05:00:20.178Z,69504.00
2018-07-16T05:01:20.179Z,66912.00
2018-07-16T05:02:20.192Z,64352.00
2018-07-16T05:03:20.230Z,66848.00
2018-07-16T05:04:20.231Z,66624.00
2018-07-16T05:05:20.224Z,64160.00
2018-07-16T05:06:20.239Z,64288.00
2018-07-16T05:07:20.260Z,61600.00
2018-07-16T05:08:20.271Z,62976.00
2018-07-16T05:09:20.292Z,53472.00
2018-07-16T05:10:20.298Z,53696.00
2018-07-16T05:11:20.313Z,44800.00
2018-07-16T05:12:20.327Z,45056.00
2018-07-16T05:13:20.377Z,59584.00
2018-07-16T05:14:20.444Z,53760.00
2018-07-16T05:15:20.593Z,60512.00
2018-07-16T05:16:20.490Z,61664.00
2018-07-16T05:17:20.416Z,61312.00
2018-07-16T05:18:20.897Z,62752.00
2018-07-16T05:19:20.655Z,64448.00
2018-07-16T05:20:20.521Z,55936.00
2018-07-16T05:21:20.635Z,47712.00
2018-07-16T05:22:20.561Z,57536.00
2018-07-16T05:23:21.775Z,66208.00
2018-07-16T05:24:20.848Z,34272.00
2018-07-16T05:25:20.587Z,57024.00
2018-07-16T05:27:52.859Z,62944.00
2018-07-16T05:30:16.984Z,57216.00
2018-07-16T05:31:16.096Z,64448.00
2018-07-16T05:32:16.252Z,54208.00
2018-07-16T05:33:16.509Z,36736.00
2018-07-16T05:34:16.413Z,5860.00
2018-07-16T05:35:16.224Z,4344.00
2018-07-16T05:36:25.017Z,4088.00
2018-07-16T05:38:09.726Z,4356.00
2018-07-16T05:39:09.667Z,5952.00
2018-07-16T05:40:10.347Z,8556.00
2018-07-16T05:41:09.952Z,16736.00
2018-07-16T05:42:10.127Z,11988.00
2018-07-16T05:43:11.320Z,13696.00
2018-07-16T05:44:10.064Z,9780.00
2018-07-16T05:45:11.243Z,26112.00
2018-07-16T05:46:11.543Z,23424.00
2018-07-16T05:47:10.647Z,48992.00
2018-07-16T05:48:10.060Z,52352.00
2018-07-16T05:49:09.884Z,45888.00
2018-07-16T05:50:09.943Z,63360.00
2018-07-16T05:51:18.739Z,85248.00
2018-07-16T05:53:04.710Z,52288.00
2018-07-16T05:54:04.279Z,8064.00
2018-07-16T05:55:04.601Z,7820.00
2018-07-16T05:56:04.301Z,7000.00
2018-07-16T05:57:04.773Z,7932.00
2018-07-16T05:58:06.106Z,7096.00
2018-07-16T05:59:05.411Z,7092.00
2018-07-16T06:00:04.615Z,6724.00
2018-07-16T06:01:04.473Z,6756.00
2018-07-16T06:02:04.427Z,6444.00
2018-07-16T06:03:04.718Z,6296.00
2018-07-16T06:04:04.653Z,6096.00
2018-07-16T06:05:04.553Z,5904.00
2018-07-16T06:06:04.645Z,5512.00
2018-07-16T06:07:04.665Z,5300.00
2018-07-16T06:08:04.589Z,5228.00
2018-07-16T06:09:04.692Z,5232.00
2018-07-16T06:10:04.574Z,5000.00
2018-07-16T06:11:04.635Z,5128.00
2018-07-16T06:12:04.738Z,5176.00
2018-07-16T06:13:04.752Z,7868.00
2018-07-16T06:14:04.597Z,15820.00
2018-07-16T06:15:04.688Z,17568.00
2018-07-16T06:16:04.700Z,11688.00
2018-07-16T06:17:04.743Z,4684.00
2018-07-16T06:18:04.751Z,4208.00
2018-07-16T06:19:04.666Z,3904.00
2018-07-16T06:20:04.767Z,3692.00
2018-07-16T06:21:04.745Z,3472.00
2018-07-16T06:22:04.788Z,3388.00
2018-07-16T06:23:04.853Z,3308.00
2018-07-16T06:24:04.893Z,3304.00
2018-07-16T06:25:04.800Z,3208.00
2018-07-16T06:26:04.822Z,3176.00
2018-07-16T06:27:04.814Z,3156.00
2018-07-16T06:28:04.822Z,3128.00
2018-07-16T06:29:04.829Z,3104.00
2018-07-16T06:30:04.822Z,3096.00
2018-07-16T06:31:04.803Z,3060.00
2018-07-16T06:32:04.911Z,3036.00
2018-07-16T06:33:04.780Z,2896.00
2018-07-16T06:34:04.973Z,2980.00
2018-07-16T06:35:04.947Z,2960.00
2018-07-16T06:36:04.842Z,2956.00
2018-07-16T06:37:04.840Z,2932.00
2018-07-16T06:38:04.837Z,2912.00
2018-07-16T06:39:04.803Z,2900.00
2018-07-16T06:40:04.888Z,2896.00
2018-07-16T06:41:04.953Z,2912.00
2018-07-16T06:42:04.863Z,2904.00
2018-07-16T06:43:04.839Z,2904.00
2018-07-16T06:44:04.831Z,2892.00
2018-07-16T06:45:04.899Z,2884.00
2018-07-16T06:46:04.848Z,2884.00
2018-07-16T06:47:04.871Z,2872.00
2018-07-16T06:48:04.916Z,2864.00
2018-07-16T06:49:04.868Z,2856.00
2018-07-16T06:50:04.882Z,2848.00
2018-07-16T06:51:04.919Z,2848.00
2018-07-16T06:52:04.898Z,2800.00
2018-07-16T06:53:04.940Z,2836.00
2018-07-16T06:54:04.908Z,2824.00
2018-07-16T06:55:04.977Z,2804.00
2018-07-16T06:56:04.953Z,2760.00
2018-07-16T06:57:04.957Z,2736.00
2018-07-16T06:58:13.597Z,2664.00
2018-07-16T06:59:59.363Z,2712.00
2018-07-16T07:00:59.353Z,2756.00
2018-07-16T07:01:59.381Z,2808.00
2018-07-16T07:02:59.364Z,2848.00
2018-07-16T07:04:06.720Z,2868.00
2018-07-16T07:06:00.553Z,2884.00
2018-07-16T07:06:52.812Z,2868.00
2018-07-16T07:08:46.222Z,2636.00
2018-07-16T07:09:46.232Z,2868.00
2018-07-16T07:10:46.237Z,2832.00
2018-07-16T07:11:46.254Z,2760.00
2018-07-16T07:12:46.237Z,2864.00
2018-07-16T07:13:46.260Z,2856.00
2018-07-16T07:14:46.275Z,2856.00
2018-07-16T07:15:46.278Z,2844.00
2018-07-16T07:16:46.291Z,2848.00
2018-07-16T07:17:46.300Z,2804.00
2018-07-16T07:18:46.337Z,2804.00
2018-07-16T07:19:46.340Z,2800.00
2018-07-16T07:20:46.305Z,2776.00
2018-07-16T07:21:46.336Z,2776.00
2018-07-16T07:22:46.348Z,2784.00
2018-07-16T07:23:46.356Z,2788.00
2018-07-16T07:24:46.350Z,2788.00
2018-07-16T07:25:46.344Z,2796.00
2018-07-16T07:26:46.378Z,2784.00
2018-07-16T07:27:46.403Z,2792.00
2018-07-16T07:28:46.381Z,2800.00
2018-07-16T07:29:46.391Z,2804.00
2018-07-16T07:30:46.378Z,2812.00
2018-07-16T07:31:46.425Z,2820.00
2018-07-16T07:32:46.450Z,2708.00
2018-07-16T07:33:46.414Z,2804.00
2018-07-16T07:34:46.461Z,2816.00
2018-07-16T07:35:46.542Z,2788.00
2018-07-16T07:36:46.476Z,2840.00
2018-07-16T07:37:46.427Z,2852.00
2018-07-16T07:38:46.466Z,2796.00
2018-07-16T07:39:46.455Z,2784.00
2018-07-16T07:40:46.460Z,2788.00
2018-07-16T07:41:46.473Z,2740.00
2018-07-16T07:42:46.457Z,2720.00
2018-07-16T07:43:46.495Z,2684.00
2018-07-16T07:44:46.498Z,2676.00
2018-07-16T07:45:46.498Z,2640.00
2018-07-16T07:46:46.524Z,2568.00
2018-07-16T07:47:46.569Z,2608.00
2018-07-16T07:48:46.541Z,2584.00
2018-07-16T07:49:46.530Z,2496.00
2018-07-16T07:50:46.549Z,2572.00
2018-07-16T07:51:46.534Z,2540.00
2018-07-16T07:52:46.527Z,2436.00
2018-07-16T07:53:46.545Z,2460.00
2018-07-16T07:54:46.720Z,2456.00
2018-07-16T07:55:46.625Z,2428.00
2018-07-16T07:56:46.570Z,2424.00
2018-07-16T07:57:46.578Z,2416.00
2018-07-16T08:00:16.488Z,2404.00
2018-07-16T08:01:08.761Z,2392.00
2018-07-16T08:03:03.396Z,2376.00
2018-07-16T08:04:03.239Z,2376.00
2018-07-16T08:05:03.180Z,2356.00
2018-07-16T08:06:03.218Z,2348.00
2018-07-16T08:07:03.202Z,2340.00
2018-07-16T08:08:03.209Z,2400.00
2018-07-16T08:09:03.209Z,2324.00
2018-07-16T08:10:03.242Z,2320.00
2018-07-16T08:11:03.209Z,2204.00
2018-07-16T08:12:03.205Z,2240.00
2018-07-16T08:13:03.277Z,2188.00
2018-07-16T08:14:03.219Z,2200.00
2018-07-16T08:15:03.229Z,2244.00
2018-07-16T08:16:03.277Z,2228.00
2018-07-16T08:17:03.288Z,2244.00
2018-07-16T08:18:03.297Z,2192.00
2018-07-16T08:19:03.272Z,2200.00
2018-07-16T08:20:03.267Z,2184.00
2018-07-16T08:21:03.321Z,2180.00
2018-07-16T08:22:03.279Z,2168.00
2018-07-16T08:23:03.361Z,2164.00
2018-07-16T08:24:03.282Z,2128.00
2018-07-16T08:25:03.323Z,2116.00
2018-07-16T08:26:11.951Z,2108.00
2018-07-16T08:27:56.751Z,2092.00
2018-07-16T08:28:56.715Z,2076.00
2018-07-16T08:30:05.419Z,2068.00
2018-07-16T08:30:56.764Z,2064.00
2018-07-16T08:31:56.733Z,2064.00
2018-07-16T08:32:56.773Z,2064.00
2018-07-16T08:33:56.752Z,2044.00
2018-07-16T08:34:56.780Z,2052.00
2018-07-16T08:35:56.774Z,2060.00
2018-07-16T08:36:56.752Z,2040.00
2018-07-16T08:37:56.779Z,2020.00
2018-07-16T08:38:56.815Z,2008.00
2018-07-16T08:39:56.836Z,1996.00
2018-07-16T08:40:56.811Z,1988.00
2018-07-16T08:41:56.822Z,1976.00
2018-07-16T08:42:56.851Z,1956.00
2018-07-16T08:43:56.838Z,1956.00
2018-07-16T08:44:57.813Z,1944.00
2018-07-16T08:45:56.832Z,1944.00
2018-07-16T08:46:56.854Z,1944.00
2018-07-16T08:47:56.836Z,1908.00
2018-07-16T08:48:56.847Z,1932.00
2018-07-16T08:49:57.010Z,1912.00
2018-07-16T08:50:56.844Z,1904.00
2018-07-16T08:51:56.880Z,1896.00
2018-07-16T08:52:56.916Z,1868.00
2018-07-16T08:53:56.896Z,1856.00
2018-07-16T08:54:56.926Z,1840.00
2018-07-16T08:55:57.039Z,1856.00
2018-07-16T08:56:56.918Z,1848.00
2018-07-16T08:57:56.908Z,1840.00
2018-07-16T08:58:56.911Z,1892.00
2018-07-16T08:59:56.911Z,1856.00
2018-07-16T09:00:57.012Z,1880.00
2018-07-16T09:01:56.941Z,1860.00
2018-07-16T09:02:56.931Z,1828.00
2018-07-16T09:03:56.956Z,1808.00
2018-07-16T09:04:56.962Z,1784.00
2018-07-16T09:05:56.950Z,1776.00
2018-07-16T09:06:56.966Z,1756.00
2018-07-16T09:07:56.965Z,1752.00
2018-07-16T09:08:56.979Z,1740.00
2018-07-16T09:09:57.013Z,1732.00
2018-07-16T09:10:57.119Z,1708.00
2018-07-16T09:11:57.045Z,1692.00
2018-07-16T09:12:56.987Z,1676.00
2018-07-16T09:13:57.027Z,1676.00
2018-07-16T09:14:57.015Z,1668.00
2018-07-16T09:15:57.055Z,1660.00
2018-07-16T09:16:57.109Z,1664.00
2018-07-16T09:17:57.037Z,1628.00
2018-07-16T09:18:57.036Z,1592.00
2018-07-16T09:19:57.046Z,1624.00
2018-07-16T09:20:57.047Z,1596.00
2018-07-16T09:21:57.070Z,1428.00
2018-07-16T09:22:57.061Z,872.00
2018-07-16T09:23:57.093Z,848.00
2018-07-16T09:24:57.091Z,804.00
2018-07-16T09:25:57.213Z,800.00
2018-07-16T09:26:57.159Z,860.00
2018-07-16T09:27:57.098Z,856.00
2018-07-16T09:28:57.106Z,848.00
2018-07-16T09:29:57.115Z,896.00
2018-07-16T09:30:57.162Z,848.00
2018-07-16T09:31:57.144Z,848.00
2018-07-16T09:32:57.183Z,860.00
2018-07-16T09:33:57.137Z,948.00
2018-07-16T09:34:57.139Z,956.00
2018-07-16T09:35:57.161Z,824.00
2018-07-16T09:36:57.152Z,872.00
2018-07-16T09:37:57.163Z,780.00
2018-07-16T09:38:57.230Z,620.00
2018-07-16T09:39:57.188Z,764.00
2018-07-16T09:40:57.172Z,832.00
2018-07-16T09:41:57.182Z,820.00
2018-07-16T09:42:57.207Z,812.00
2018-07-16T09:43:57.192Z,816.00
2018-07-16T09:45:05.917Z,836.00
2018-07-16T09:46:50.669Z,808.00
2018-07-16T09:47:50.661Z,796.00
2018-07-16T09:48:50.676Z,800.00
2018-07-16T09:49:50.689Z,800.00
2018-07-16T09:50:50.686Z,820.00
2018-07-16T09:51:50.684Z,800.00
2018-07-16T09:52:50.697Z,800.00
2018-07-16T09:53:50.700Z,792.00
2018-07-16T09:54:50.703Z,792.00
2018-07-16T09:55:50.705Z,808.00
2018-07-16T09:56:50.720Z,792.00
2018-07-16T09:57:50.721Z,796.00
2018-07-16T09:58:50.719Z,800.00
2018-07-16T09:59:50.728Z,780.00
2018-07-16T10:00:50.769Z,1048.00
2018-07-16T10:01:50.750Z,924.00
2018-07-16T10:02:50.766Z,1036.00
2018-07-16T10:03:50.774Z,684.00
2018-07-16T10:04:50.769Z,900.00
2018-07-16T10:05:50.789Z,788.00
2018-07-16T10:06:50.777Z,688.00
2018-07-16T10:07:59.423Z,720.00
2018-07-16T10:09:54.262Z,692.00
2018-07-16T10:10:44.208Z,680.00
2018-07-16T10:11:44.210Z,724.00
2018-07-16T10:12:44.236Z,728.00
2018-07-16T10:13:44.223Z,640.00
2018-07-16T10:14:44.220Z,688.00
2018-07-16T10:15:44.238Z,632.00
2018-07-16T10:16:44.234Z,868.00
2018-07-16T10:17:44.246Z,904.00
2018-07-16T10:18:44.260Z,680.00
2018-07-16T10:19:44.265Z,704.00
2018-07-16T10:20:44.265Z,692.00
2018-07-16T10:21:44.276Z,684.00
2018-07-16T10:22:44.276Z,684.00
2018-07-16T10:23:44.276Z,640.00
2018-07-16T10:24:44.292Z,656.00
2018-07-16T10:25:44.358Z,624.00
2018-07-16T10:26:44.306Z,524.00
2018-07-16T10:27:44.320Z,696.00
2018-07-16T10:28:44.313Z,812.00
2018-07-16T10:29:44.325Z,720.00
2018-07-16T10:30:44.323Z,728.00
2018-07-16T10:31:44.348Z,680.00
2018-07-16T10:32:44.350Z,668.00
2018-07-16T10:33:44.415Z,664.00
2018-07-16T10:34:44.378Z,692.00
2018-07-16T10:35:44.362Z,652.00
2018-07-16T10:36:44.365Z,1032.00
2018-07-16T10:37:44.373Z,620.00
2018-07-16T10:38:44.380Z,692.00
2018-07-16T10:39:44.381Z,864.00
2018-07-16T10:40:44.412Z,544.00
2018-07-16T10:41:44.397Z,672.00
2018-07-16T10:42:44.411Z,572.00
2018-07-16T10:43:44.415Z,652.00
2018-07-16T10:44:44.420Z,584.00
2018-07-16T10:45:44.434Z,620.00
2018-07-16T10:46:44.482Z,604.00
2018-07-16T10:47:44.431Z,668.00
2018-07-16T10:48:44.442Z,596.00
2018-07-16T10:49:44.514Z,644.00
2018-07-16T10:50:44.465Z,616.00
2018-07-16T10:51:44.505Z,744.00
2018-07-16T10:52:44.472Z,604.00
2018-07-16T10:53:44.490Z,580.00
2018-07-16T10:54:44.494Z,680.00
2018-07-16T10:55:44.494Z,636.00
2018-07-16T10:56:44.511Z,648.00
2018-07-16T10:57:44.529Z,816.00
2018-07-16T10:58:44.521Z,880.00
2018-07-16T10:59:44.526Z,624.00
2018-07-16T11:00:44.518Z,716.00
2018-07-16T11:01:44.520Z,660.00
2018-07-16T11:02:44.552Z,712.00
2018-07-16T11:03:44.540Z,552.00
2018-07-16T11:04:44.560Z,660.00
2018-07-16T11:05:44.558Z,812.00
2018-07-16T11:06:44.565Z,704.00
2018-07-16T11:07:44.722Z,600.00
2018-07-16T11:08:44.752Z,608.00
2018-07-16T11:09:44.589Z,792.00
2018-07-16T11:10:44.610Z,544.00
2018-07-16T11:11:44.616Z,768.00
2018-07-16T11:14:05.666Z,560.00
2018-07-16T11:15:05.807Z,708.00
2018-07-16T11:16:05.718Z,756.00
2018-07-16T11:17:05.678Z,520.00
2018-07-16T11:18:05.693Z,644.00
2018-07-16T11:19:05.692Z,564.00
2018-07-16T11:20:05.695Z,528.00
2018-07-16T11:21:05.736Z,568.00
2018-07-16T11:22:05.710Z,556.00
2018-07-16T11:23:05.714Z,552.00
2018-07-16T11:24:05.736Z,564.00
2018-07-16T11:25:05.736Z,560.00
2018-07-16T11:26:05.736Z,504.00
2018-07-16T11:27:05.734Z,640.00
2018-07-16T11:28:05.748Z,800.00
2018-07-16T11:29:05.758Z,620.00
2018-07-16T11:30:05.765Z,576.00
2018-07-16T11:31:05.771Z,800.00
2018-07-16T11:32:05.769Z,724.00
2018-07-16T11:33:05.788Z,560.00
2018-07-16T11:34:05.785Z,552.00
2018-07-16T11:35:05.797Z,544.00
2018-07-16T11:36:05.796Z,608.00
2018-07-16T11:37:05.822Z,576.00
2018-07-16T11:38:05.811Z,512.00
2018-07-16T11:39:05.818Z,772.00
2018-07-16T11:40:05.830Z,572.00
2018-07-16T11:41:05.839Z,700.00
2018-07-16T11:42:05.843Z,592.00
2018-07-16T11:43:05.849Z,824.00
2018-07-16T11:44:05.853Z,360.00
2018-07-16T11:45:05.861Z,536.00
2018-07-16T11:46:05.878Z,752.00
2018-07-16T11:47:05.876Z,540.00
2018-07-16T11:48:05.875Z,536.00
2018-07-16T11:49:05.882Z,552.00
2018-07-16T11:50:05.887Z,540.00
2018-07-16T11:51:05.919Z,532.00
2018-07-16T11:52:05.954Z,532.00
2018-07-16T11:53:05.908Z,528.00
2018-07-16T11:54:05.925Z,548.00
2018-07-16T11:55:05.927Z,624.00
2018-07-16T11:56:05.937Z,824.00
2018-07-16T11:57:05.940Z,472.00
2018-07-16T11:58:05.953Z,584.00
2018-07-16T11:59:06.076Z,936.00
2018-07-16T12:00:05.963Z,644.00
2018-07-16T12:01:05.971Z,936.00
2018-07-16T12:03:27.032Z,724.00
2018-07-16T12:04:27.058Z,632.00
2018-07-16T12:05:27.045Z,576.00
2018-07-16T12:06:27.050Z,564.00
2018-07-16T12:07:27.040Z,832.00
2018-07-16T12:08:27.046Z,756.00
2018-07-16T12:09:27.071Z,600.00
2018-07-16T12:10:27.065Z,684.00
2018-07-16T12:11:27.086Z,548.00
2018-07-16T12:12:27.188Z,508.00
2018-07-16T12:13:27.084Z,776.00
2018-07-16T12:14:27.087Z,540.00
2018-07-16T12:15:27.114Z,648.00
2018-07-16T12:16:35.771Z,788.00
2018-07-16T12:18:20.538Z,524.00
2018-07-16T12:19:20.517Z,672.00
2018-07-16T12:20:20.537Z,496.00
2018-07-16T12:21:20.523Z,572.00
2018-07-16T12:22:20.527Z,436.00
2018-07-16T12:23:20.538Z,508.00
2018-07-16T12:24:20.542Z,564.00
2018-07-16T12:25:20.551Z,564.00
2018-07-16T12:26:20.560Z,524.00
2018-07-16T12:27:20.568Z,532.00
2018-07-16T12:28:20.573Z,540.00
2018-07-16T12:29:20.577Z,560.00
2018-07-16T12:30:20.588Z,540.00
2018-07-16T12:31:20.656Z,716.00
2018-07-16T12:32:20.603Z,480.00
2018-07-16T12:33:20.622Z,676.00
2018-07-16T12:34:20.619Z,596.00
2018-07-16T12:35:20.622Z,624.00
2018-07-16T12:36:20.624Z,696.00
2018-07-16T12:37:20.664Z,524.00
2018-07-16T12:38:20.647Z,472.00
2018-07-16T12:39:20.657Z,840.00
2018-07-16T12:40:20.656Z,536.00
2018-07-16T12:41:20.711Z,532.00
2018-07-16T12:42:20.680Z,784.00
2018-07-16T12:43:20.710Z,620.00
2018-07-16T12:44:20.715Z,540.00
2018-07-16T12:45:20.733Z,540.00
2018-07-16T12:46:20.715Z,548.00
2018-07-16T12:47:20.702Z,548.00
2018-07-16T12:48:20.725Z,540.00
2018-07-16T12:49:20.720Z,564.00
2018-07-16T12:50:20.773Z,564.00
2018-07-16T12:51:20.746Z,616.00
2018-07-16T12:52:20.771Z,600.00
2018-07-16T12:53:20.823Z,556.00
2018-07-16T12:54:20.781Z,580.00
2018-07-16T12:55:20.802Z,628.00
2018-07-16T12:56:20.805Z,520.00
2018-07-16T12:57:20.809Z,492.00
2018-07-16T12:58:20.854Z,500.00
2018-07-16T12:59:20.826Z,736.00
2018-07-16T13:00:20.822Z,704.00
2018-07-16T13:01:20.802Z,560.00
2018-07-16T13:02:20.866Z,556.00
2018-07-16T13:03:20.890Z,572.00
2018-07-16T13:04:20.833Z,556.00
2018-07-16T13:05:20.854Z,900.00